Time;durP1;ratioP1;P1;durP2;ratioP2;P2;SDS_P1;SDS_P2;PMS_P1;PMS_P2;Temp;Humidity;BMP_temperature;BMP_pressure;BME280_temperature;BME280_humidity;BME280_pressure;Samples;Min_cycle;Max_cycle;Signal;HPM_P1;HPM_P2
2024/02/13 00:00:10;;;;;;;6.82;3.50;;;5.80;92.00;;;;;;5069570;28;20020;-36
2024/02/13 00:02:37;;;;;;;6.75;3.58;;;5.80;92.00;;;;;;5071330;28;20025;-36
2024/02/13 00:05:07;;;;;;;7.35;3.50;;;5.70;92.00;;;;;;5071422;28;20096;-38
2024/02/13 00:07:38;;;;;;;6.65;3.50;;;5.70;92.00;;;;;;5071506;28;20055;-35
2024/02/13 00:10:09;;;;;;;8.70;3.75;;;5.70;92.00;;;;;;5071521;28;20020;-38
2024/02/13 00:12:34;;;;;;;7.45;3.80;;;5.70;92.10;;;;;;5071647;28;20025;-40
2024/02/13 00:15:00;;;;;;;6.88;3.40;;;5.70;92.10;;;;;;5071407;28;20484;-38
2024/02/13 00:17:27;;;;;;;7.13;3.67;;;5.70;92.10;;;;;;5071041;28;20413;-37
2024/02/13 00:19:53;;;;;;;6.57;3.80;;;5.70;92.10;;;;;;5071065;28;20017;-37
2024/02/13 00:22:19;;;;;;;9.48;4.45;;;5.70;92.10;;;;;;5071425;28;20039;-35
2024/02/13 00:24:46;;;;;;;7.85;3.88;;;5.70;92.10;;;;;;5071381;28;20016;-36
2024/02/13 00:27:12;;;;;;;8.45;4.20;;;5.70;92.10;;;;;;5071444;28;20431;-37
2024/02/13 00:29:37;;;;;;;9.63;4.00;;;5.60;92.10;;;;;;5071037;28;20029;-38
2024/02/13 00:32:04;;;;;;;7.60;3.85;;;5.70;92.20;;;;;;5071322;28;20016;-38
2024/02/13 00:34:30;;;;;;;7.53;4.00;;;5.70;92.20;;;;;;5071101;28;20048;-37
2024/02/13 00:37:00;;;;;;;7.97;4.30;;;5.60;92.20;;;;;;5070956;28;20458;-37
2024/02/13 00:39:27;;;;;;;7.00;3.92;;;5.70;92.20;;;;;;5071369;28;20024;-37
2024/02/13 00:41:55;;;;;;;8.50;3.92;;;5.60;92.20;;;;;;5071732;28;20103;-37
2024/02/13 00:44:21;;;;;;;6.55;4.00;;;5.60;92.20;;;;;;5070748;28;20021;-37
2024/02/13 00:46:48;;;;;;;8.82;4.10;;;5.60;92.30;;;;;;5070794;28;20116;-37
2024/02/13 00:49:14;;;;;;;5.47;3.90;;;5.60;92.20;;;;;;5070887;28;20271;-38
2024/02/13 00:51:41;;;;;;;8.02;4.38;;;5.60;92.30;;;;;;5070854;28;20119;-39
2024/02/13 00:54:13;;;;;;;6.45;4.45;;;5.60;92.30;;;;;;5071134;28;20449;-37
2024/02/13 00:56:45;;;;;;;7.43;4.30;;;5.60;92.30;;;;;;5070994;28;20020;-38
2024/02/13 00:59:12;;;;;;;7.00;4.28;;;5.60;92.30;;;;;;5070965;28;20380;-38
2024/02/13 01:01:39;;;;;;;8.90;4.47;;;5.60;92.30;;;;;;5070487;28;20056;-37
2024/02/13 01:04:06;;;;;;;8.25;4.88;;;5.60;92.30;;;;;;5071072;28;20028;-36
2024/02/13 01:06:33;;;;;;;7.78;4.80;;;5.60;92.30;;;;;;5070997;28;20025;-38
2024/02/13 01:09:00;;;;;;;10.30;4.55;;;5.60;92.30;;;;;;5070908;28;20029;-37
2024/02/13 01:11:26;;;;;;;10.95;5.80;;;5.60;92.30;;;;;;5070732;28;20074;-37
2024/02/13 01:13:51;;;;;;;8.20;5.38;;;5.50;92.30;;;;;;5074336;28;20031;-37
2024/02/13 01:16:19;;;;;;;6.22;5.00;;;5.60;92.30;;;;;;5074548;28;20028;-37
2024/02/13 01:18:44;;;;;;;9.38;5.45;;;5.50;92.30;;;;;;5074525;28;20441;-43
2024/02/13 01:21:14;;;;;;;9.95;5.82;;;5.50;92.30;;;;;;5074343;28;20036;-36
2024/02/13 01:23:40;;;;;;;10.57;6.32;;;5.50;92.40;;;;;;5074553;28;20404;-36
2024/02/13 01:26:05;;;;;;;11.27;6.28;;;5.50;92.40;;;;;;5074237;28;20028;-35
2024/02/13 01:28:34;;;;;;;10.38;6.40;;;5.50;92.40;;;;;;5074189;28;20033;-37
2024/02/13 01:31:02;;;;;;;10.45;6.78;;;5.50;92.40;;;;;;5073966;28;20033;-36
2024/02/13 01:33:28;;;;;;;9.93;7.07;;;5.50;92.40;;;;;;5072779;28;20039;-35
2024/02/13 01:35:54;;;;;;;11.82;7.00;;;5.50;92.40;;;;;;5073865;28;20044;-37
2024/02/13 01:38:20;;;;;;;13.27;7.03;;;5.50;92.40;;;;;;5074126;28;20039;-37
2024/02/13 01:40:46;;;;;;;12.93;7.28;;;5.50;92.40;;;;;;5074005;28;20024;-36
2024/02/13 01:43:13;;;;;;;12.50;7.57;;;5.50;92.40;;;;;;5073786;28;20071;-38
2024/02/13 01:45:39;;;;;;;11.50;7.40;;;5.50;92.40;;;;;;5073885;28;20021;-37
2024/02/13 01:48:06;;;;;;;14.27;7.88;;;5.40;92.30;;;;;;5073544;28;20040;-35
2024/02/13 01:50:36;;;;;;;14.25;7.55;;;5.50;92.40;;;;;;5075225;28;20489;-37
2024/02/13 01:53:02;;;;;;;11.63;7.60;;;5.50;92.40;;;;;;5073711;28;20021;-34
2024/02/13 01:55:29;;;;;;;12.25;7.97;;;5.40;92.30;;;;;;5073512;28;20119;-35
2024/02/13 01:57:57;;;;;;;11.75;8.52;;;5.50;92.40;;;;;;5073757;28;20032;-36
2024/02/13 02:00:24;;;;;;;12.57;7.63;;;5.50;92.40;;;;;;5073236;28;20029;-37
2024/02/13 02:02:50;;;;;;;12.10;8.45;;;5.50;92.40;;;;;;5072971;28;20027;-36
2024/02/13 02:05:16;;;;;;;13.95;8.43;;;5.40;92.40;;;;;;5073170;28;20111;-42
2024/02/13 02:07:42;;;;;;;12.88;7.85;;;5.40;92.40;;;;;;5073307;28;20485;-37
2024/02/13 02:10:08;;;;;;;13.18;8.88;;;5.50;92.40;;;;;;5073451;28;20036;-36
2024/02/13 02:12:38;;;;;;;14.05;8.45;;;5.40;92.40;;;;;;5073712;28;20460;-38
2024/02/13 02:15:04;;;;;;;11.38;8.57;;;5.40;92.40;;;;;;5073349;28;20029;-40
2024/02/13 02:17:29;;;;;;;10.65;8.40;;;5.40;92.40;;;;;;5072885;28;20028;-36
2024/02/13 02:19:56;;;;;;;13.65;9.13;;;5.40;92.40;;;;;;5072961;28;20483;-36
2024/02/13 02:22:22;;;;;;;13.77;9.68;;;5.40;92.40;;;;;;5073036;28;20032;-38
2024/02/13 02:24:48;;;;;;;13.00;9.82;;;5.40;92.40;;;;;;5072227;28;20507;-35
2024/02/13 02:27:14;;;;;;;16.30;9.23;;;5.40;92.40;;;;;;5072997;28;20033;-38
2024/02/13 02:29:40;;;;;;;15.35;9.13;;;5.40;92.40;;;;;;5073025;28;20035;-36
2024/02/13 02:32:08;;;;;;;12.10;9.02;;;5.40;92.40;;;;;;5073131;28;20381;-38
2024/02/13 02:34:34;;;;;;;12.38;9.18;;;5.40;92.40;;;;;;5072518;28;20447;-37
2024/02/13 02:37:00;;;;;;;17.00;9.20;;;5.40;92.40;;;;;;5072888;28;20520;-37
2024/02/13 02:39:26;;;;;;;15.57;9.95;;;5.40;92.40;;;;;;5072545;28;20025;-37
2024/02/13 02:41:52;;;;;;;15.10;10.10;;;5.40;92.40;;;;;;5072779;28;20040;-36
2024/02/13 02:44:18;;;;;;;14.88;9.60;;;5.40;92.40;;;;;;5071209;28;20063;-36
2024/02/13 02:46:47;;;;;;;13.55;9.57;;;5.40;92.40;;;;;;5071164;28;20094;-36
2024/02/13 02:49:15;;;;;;;13.15;9.50;;;5.40;92.40;;;;;;5072760;28;20025;-36
2024/02/13 02:51:42;;;;;;;15.38;10.02;;;5.40;92.40;;;;;;5072338;28;20017;-36
2024/02/13 02:54:08;;;;;;;15.02;9.88;;;5.50;92.40;;;;;;5072761;28;20437;-36
2024/02/13 02:56:38;;;;;;;15.45;10.70;;;5.50;92.40;;;;;;5072408;28;20052;-37
2024/02/13 02:59:04;;;;;;;14.20;10.13;;;5.40;92.40;;;;;;5072788;28;20028;-37
2024/02/13 03:01:30;;;;;;;16.52;10.48;;;5.40;92.40;;;;;;5072047;28;20108;-37
2024/02/13 03:03:57;;;;;;;13.05;9.88;;;5.40;92.40;;;;;;5072527;28;20028;-36
2024/02/13 03:06:22;;;;;;;15.07;10.57;;;5.40;92.30;;;;;;5072232;28;20079;-36
2024/02/13 03:08:49;;;;;;;14.27;9.45;;;5.40;92.30;;;;;;5072502;28;20416;-36
2024/02/13 03:11:15;;;;;;;14.95;9.93;;;5.40;92.30;;;;;;5072320;28;20032;-38
2024/02/13 03:13:40;;;;;;;14.38;10.00;;;5.40;92.30;;;;;;5071801;28;20120;-36
2024/02/13 03:16:06;;;;;;;16.27;10.32;;;5.50;92.40;;;;;;5072414;28;20031;-38
2024/02/13 03:18:32;;;;;;;13.98;10.13;;;5.40;92.30;;;;;;5071600;28;20431;-37
2024/02/13 03:20:57;;;;;;;18.35;10.80;;;5.50;92.60;;;;;;5071862;28;20070;-37
2024/02/13 03:23:23;;;;;;;14.88;10.27;;;5.50;92.30;;;;;;5071833;28;20033;-38
2024/02/13 03:25:48;;;;;;;16.55;9.77;;;5.50;92.40;;;;;;5071620;28;20492;-37
2024/02/13 03:28:14;;;;;;;15.70;10.18;;;5.50;92.40;;;;;;5072303;28;20436;-38
2024/02/13 03:30:40;;;;;;;14.95;10.75;;;5.50;92.40;;;;;;5071622;28;20315;-43
2024/02/13 03:33:05;;;;;;;16.10;10.25;;;5.50;92.30;;;;;;5072019;28;20070;-37
2024/02/13 03:35:31;;;;;;;15.68;11.02;;;5.40;92.30;;;;;;5070115;28;20056;-37
2024/02/13 03:37:57;;;;;;;14.20;10.43;;;5.40;92.30;;;;;;5070283;28;20466;-37
2024/02/13 03:40:23;;;;;;;15.18;10.15;;;5.40;92.30;;;;;;5071719;28;20122;-36
2024/02/13 03:42:48;;;;;;;13.95;10.23;;;5.40;92.40;;;;;;5071552;28;20385;-37
2024/02/13 03:45:14;;;;;;;12.88;9.55;;;5.40;92.40;;;;;;5071443;28;20084;-36
2024/02/13 03:47:40;;;;;;;14.32;10.75;;;5.40;92.40;;;;;;5071396;28;20590;-36
2024/02/13 03:50:06;;;;;;;14.18;10.30;;;5.40;92.40;;;;;;5071554;28;20029;-34
2024/02/13 03:52:35;;;;;;;17.67;9.90;;;5.40;92.40;;;;;;5071693;28;20039;-36
2024/02/13 03:55:04;;;;;;;16.50;10.52;;;5.30;92.40;;;;;;5071319;28;20039;-36
2024/02/13 03:57:30;;;;;;;14.30;10.10;;;5.30;92.40;;;;;;5071481;28;20497;-36
2024/02/13 03:59:56;;;;;;;14.13;9.73;;;5.30;92.50;;;;;;5071274;28;20083;-35
2024/02/13 04:02:22;;;;;;;13.85;10.30;;;5.20;92.50;;;;;;5071399;28;20020;-36
2024/02/13 04:04:47;;;;;;;15.85;9.98;;;5.20;92.50;;;;;;5071527;28;20020;-38
2024/02/13 04:07:13;;;;;;;13.75;10.18;;;5.20;92.50;;;;;;5071120;28;20071;-37
2024/02/13 04:09:38;;;;;;;13.18;9.70;;;5.20;92.50;;;;;;5071393;28;20029;-36
2024/02/13 04:12:09;;;;;;;14.38;10.13;;;5.20;92.50;;;;;;5069904;28;20467;-37
2024/02/13 04:14:37;;;;;;;15.40;10.32;;;5.20;92.60;;;;;;5069917;28;20032;-37
2024/02/13 04:17:03;;;;;;;12.50;9.63;;;5.20;92.60;;;;;;5070894;28;20421;-38
2024/02/13 04:19:29;;;;;;;14.55;9.70;;;5.20;92.50;;;;;;5069762;28;20135;-36
2024/02/13 04:21:54;;;;;;;14.50;9.52;;;5.20;92.50;;;;;;5071457;28;20037;-37
2024/02/13 04:24:20;;;;;;;14.77;10.23;;;5.20;92.50;;;;;;5070990;28;20020;-36
2024/02/13 04:26:45;;;;;;;16.02;10.32;;;5.20;92.50;;;;;;5071159;28;20036;-39
2024/02/13 04:29:11;;;;;;;13.23;9.82;;;5.20;92.50;;;;;;5071221;28;20037;-36
2024/02/13 04:31:38;;;;;;;16.13;10.05;;;5.20;92.50;;;;;;5071223;28;20078;-37
2024/02/13 04:34:05;;;;;;;15.73;10.00;;;5.10;92.50;;;;;;5070967;28;20041;-37
2024/02/13 04:36:32;;;;;;;15.98;9.95;;;5.10;92.50;;;;;;5071321;28;20013;-37
2024/02/13 04:38:58;;;;;;;16.50;9.35;;;5.10;92.50;;;;;;5071057;28;20038;-36
2024/02/13 04:41:24;;;;;;;14.38;9.70;;;5.10;92.50;;;;;;5071006;28;20107;-37
2024/02/13 04:43:52;;;;;;;14.00;10.07;;;5.10;92.60;;;;;;5070808;28;20116;-36
2024/02/13 04:46:18;;;;;;;14.10;9.63;;;5.10;92.60;;;;;;5069547;28;20088;-36
2024/02/13 04:48:44;;;;;;;13.20;9.90;;;5.00;92.50;;;;;;5074517;28;20049;-37
2024/02/13 04:51:10;;;;;;;14.60;10.13;;;5.00;92.60;;;;;;5074592;28;20040;-36
2024/02/13 04:53:37;;;;;;;16.92;10.27;;;5.00;92.60;;;;;;5074651;28;20036;-38
2024/02/13 04:56:03;;;;;;;15.75;10.70;;;5.00;92.60;;;;;;5074319;28;20073;-37
2024/02/13 04:58:32;;;;;;;13.07;9.93;;;5.00;92.60;;;;;;5074413;28;20036;-36
2024/02/13 05:01:09;;;;;;;14.05;9.82;;;5.00;92.70;;;;;;5074665;28;20036;-36
2024/02/13 05:08:57;;;;;;;12.98;9.80;;;4.90;92.70;;;;;;5074294;28;20095;-38
2024/02/13 05:11:24;;;;;;;12.00;9.48;;;4.90;92.70;;;;;;5074126;28;20052;-38
2024/02/13 05:13:50;;;;;;;15.05;9.65;;;4.90;92.70;;;;;;5074194;28;20025;-36
2024/02/13 05:16:17;;;;;;;14.52;10.05;;;4.90;92.70;;;;;;5074197;28;20025;-36
2024/02/13 05:18:44;;;;;;;13.43;9.38;;;4.90;92.70;;;;;;5074299;28;20031;-36
2024/02/13 05:21:10;;;;;;;15.30;10.20;;;4.90;92.70;;;;;;5074246;28;20433;-37
2024/02/13 05:23:38;;;;;;;13.38;9.70;;;4.90;92.70;;;;;;5074224;28;20024;-39
2024/02/13 05:26:06;;;;;;;15.27;10.20;;;4.90;92.70;;;;;;5073958;28;20028;-38
2024/02/13 05:28:32;;;;;;;14.52;9.40;;;4.90;92.70;;;;;;5073893;28;20082;-37
2024/02/13 05:30:57;;;;;;;16.80;9.70;;;4.90;92.70;;;;;;5074086;28;20058;-37
2024/02/13 05:33:23;;;;;;;13.63;9.32;;;4.90;92.70;;;;;;5073982;28;20041;-35
2024/02/13 05:35:49;;;;;;;15.93;10.40;;;4.90;92.70;;;;;;5073647;28;20119;-37
2024/02/13 05:38:14;;;;;;;13.07;9.65;;;4.90;92.70;;;;;;5073617;28;20059;-39
2024/02/13 05:40:42;;;;;;;14.73;9.70;;;4.90;92.70;;;;;;5073825;28;20031;-37
2024/02/13 05:43:08;;;;;;;16.67;10.00;;;4.90;92.70;;;;;;5073921;28;20082;-37
2024/02/13 05:45:34;;;;;;;17.48;8.80;;;4.90;92.70;;;;;;5073601;28;20082;-39
2024/02/13 05:48:01;;;;;;;13.13;8.93;;;4.90;92.70;;;;;;5072198;28;20032;-38
2024/02/13 05:50:27;;;;;;;14.05;9.93;;;4.90;92.70;;;;;;5073716;28;20033;-37
2024/02/13 05:52:52;;;;;;;13.82;9.35;;;4.90;92.70;;;;;;5073892;28;20417;-38
2024/02/13 05:55:18;;;;;;;16.23;9.60;;;4.90;92.70;;;;;;5073722;28;20024;-39
2024/02/13 05:57:44;;;;;;;13.75;9.57;;;4.80;92.70;;;;;;5073278;28;20385;-38
2024/02/13 06:00:14;;;;;;;13.25;9.40;;;4.80;92.70;;;;;;5072266;28;20074;-35
2024/02/13 06:02:41;;;;;;;17.27;9.93;;;4.80;92.80;;;;;;5073685;28;20489;-41
2024/02/13 06:05:07;;;;;;;14.00;9.15;;;4.80;92.80;;;;;;5073557;28;20020;-37
2024/02/13 06:07:33;;;;;;;14.93;9.63;;;4.80;92.80;;;;;;5073374;28;20032;-39
2024/02/13 06:09:58;;;;;;;13.35;9.02;;;4.80;92.80;;;;;;5071811;28;20089;-39
2024/02/13 06:12:24;;;;;;;12.93;9.68;;;4.80;92.80;;;;;;5073328;28;20099;-39
2024/02/13 06:14:50;;;;;;;15.32;10.05;;;4.80;92.80;;;;;;5073228;28;20021;-37
2024/02/13 06:17:16;;;;;;;15.85;10.27;;;4.80;92.90;;;;;;5072977;28;20492;-39
2024/02/13 06:19:42;;;;;;;14.95;9.25;;;4.80;92.90;;;;;;5073128;28;20016;-39
2024/02/13 06:22:09;;;;;;;14.52;9.85;;;4.80;92.90;;;;;;5072956;28;20162;-37
2024/02/13 06:24:35;;;;;;;12.23;9.80;;;4.80;92.90;;;;;;5073270;28;20020;-40
2024/02/13 06:27:01;;;;;;;14.65;9.27;;;4.80;92.90;;;;;;5073334;28;20385;-41
2024/02/13 06:29:26;;;;;;;15.05;9.50;;;4.80;92.90;;;;;;5073413;28;20027;-40
2024/02/13 06:31:54;;;;;;;14.57;9.07;;;4.80;92.80;;;;;;5073381;28;20025;-38
2024/02/13 06:34:21;;;;;;;13.32;9.38;;;4.80;92.90;;;;;;5073022;28;20135;-37
2024/02/13 06:36:46;;;;;;;12.57;8.55;;;4.80;92.90;;;;;;5073529;28;20530;-41
2024/02/13 06:39:12;;;;;;;13.10;9.02;;;4.80;92.90;;;;;;5072926;28;20024;-37
2024/02/13 06:41:39;;;;;;;12.75;9.02;;;4.80;92.90;;;;;;5072782;28;20052;-38
2024/02/13 06:44:05;;;;;;;13.38;9.07;;;4.90;92.90;;;;;;5072844;28;20039;-40
2024/02/13 06:46:31;;;;;;;13.38;8.77;;;4.90;92.90;;;;;;5071042;28;20052;-38
2024/02/13 06:48:57;;;;;;;15.02;8.70;;;4.90;92.90;;;;;;5072304;28;20058;-42
2024/02/13 06:51:24;;;;;;;13.63;9.38;;;4.90;92.90;;;;;;5072523;28;20120;-38
2024/02/13 06:53:49;;;;;;;14.73;8.48;;;4.80;92.90;;;;;;5072617;28;20044;-39
2024/02/13 06:56:16;;;;;;;13.77;9.02;;;4.90;92.90;;;;;;5072717;28;20055;-38
2024/02/13 06:58:42;;;;;;;15.07;8.32;;;4.90;92.90;;;;;;5072380;28;20358;-38
2024/02/13 07:01:08;;;;;;;14.30;8.65;;;4.90;92.90;;;;;;5072074;28;20158;-37
2024/02/13 07:03:34;;;;;;;15.82;8.52;;;4.90;92.90;;;;;;5070786;28;20115;-37
2024/02/13 07:06:00;;;;;;;14.90;8.27;;;4.90;92.90;;;;;;5072004;28;20542;-36
2024/02/13 07:08:26;;;;;;;15.13;7.85;;;4.90;92.90;;;;;;5072310;28;20488;-38
2024/02/13 07:10:52;;;;;;;12.73;8.30;;;4.90;92.90;;;;;;5071566;28;20512;-37
2024/02/13 07:13:18;;;;;;;14.43;8.50;;;4.90;92.90;;;;;;5072361;28;20040;-37
2024/02/13 07:15:43;;;;;;;12.80;7.75;;;4.90;92.90;;;;;;5071956;28;20036;-38
2024/02/13 07:18:09;;;;;;;12.38;7.47;;;4.90;92.90;;;;;;5072206;28;20052;-35
2024/02/13 07:20:35;;;;;;;11.68;7.95;;;4.90;92.90;;;;;;5071867;28;20024;-36
2024/02/13 07:23:04;;;;;;;12.52;7.43;;;5.00;93.00;;;;;;5071937;28;20020;-37
2024/02/13 07:25:29;;;;;;;11.93;6.95;;;5.00;93.00;;;;;;5071818;28;20017;-36
2024/02/13 07:27:57;;;;;;;8.43;5.97;;;5.00;92.90;;;;;;5072104;28;20112;-37
2024/02/13 07:30:22;;;;;;;10.70;6.97;;;5.00;92.90;;;;;;5071972;28;20469;-37
2024/02/13 07:32:49;;;;;;;11.70;5.78;;;5.10;92.90;;;;;;5071706;28;20056;-36
2024/02/13 07:35:14;;;;;;;10.38;6.40;;;5.10;92.90;;;;;;5071884;28;20526;-37
2024/02/13 07:37:40;;;;;;;8.63;5.78;;;5.10;93.20;;;;;;5071838;28;20017;-34
2024/02/13 07:40:06;;;;;;;9.30;5.70;;;5.10;92.90;;;;;;5071745;28;20028;-37
2024/02/13 07:42:32;;;;;;;11.38;5.65;;;5.10;93.10;;;;;;5071929;28;20366;-35
2024/02/13 07:44:58;;;;;;;7.13;5.55;;;5.20;92.90;;;;;;5071343;28;20038;-36
2024/02/13 07:47:28;;;;;;;9.10;5.60;;;5.20;92.90;;;;;;5069864;28;20020;-37
2024/02/13 07:49:55;;;;;;;9.10;5.10;;;5.20;92.80;;;;;;5070395;28;20472;-36
2024/02/13 07:52:20;;;;;;;9.43;5.35;;;5.20;92.80;;;;;;5070068;28;20016;-35
2024/02/13 07:54:46;;;;;;;8.45;5.55;;;5.30;92.80;;;;;;5071221;28;20089;-36
2024/02/13 07:57:16;;;;;;;8.90;5.38;;;5.30;92.80;;;;;;5071247;28;20028;-38
2024/02/13 07:59:42;;;;;;;10.50;5.38;;;5.30;92.80;;;;;;5071555;28;20024;-35
2024/02/13 08:02:09;;;;;;;13.93;5.60;;;5.30;92.70;;;;;;5071535;28;20029;-37
2024/02/13 08:04:38;;;;;;;8.35;5.47;;;5.30;92.70;;;;;;5071492;28;20448;-38
2024/02/13 08:07:04;;;;;;;6.65;4.97;;;5.40;92.70;;;;;;5071272;28;20031;-37
2024/02/13 08:09:32;;;;;;;10.07;5.40;;;5.40;92.70;;;;;;5071499;28;20028;-37
2024/02/13 08:12:01;;;;;;;8.18;5.13;;;5.40;92.90;;;;;;5071650;28;20024;-38
2024/02/13 08:14:27;;;;;;;9.65;5.07;;;5.40;92.60;;;;;;5071711;28;20074;-39
2024/02/13 08:16:53;;;;;;;8.07;4.82;;;5.40;92.70;;;;;;5071390;28;20020;-34
2024/02/13 08:19:18;;;;;;;6.22;4.10;;;5.50;92.70;;;;;;5071139;28;20446;-37
2024/02/13 08:21:44;;;;;;;8.88;4.72;;;5.50;92.70;;;;;;5072016;28;20074;-37
2024/02/13 08:24:09;;;;;;;9.90;4.70;;;5.50;92.70;;;;;;5075365;28;20031;-37
2024/02/13 08:26:35;;;;;;;8.25;4.63;;;5.50;92.70;;;;;;5075225;28;20051;-38
2024/02/13 08:29:01;;;;;;;9.85;4.60;;;5.60;92.60;;;;;;5075261;28;20025;-35
2024/02/13 08:31:26;;;;;;;9.77;4.18;;;5.60;92.60;;;;;;5075072;28;20396;-38
2024/02/13 08:33:52;;;;;;;8.07;4.68;;;5.70;92.60;;;;;;5075053;28;20032;-38
2024/02/13 08:36:18;;;;;;;7.63;4.28;;;5.70;92.60;;;;;;5075008;28;20040;-38
2024/02/13 08:38:44;;;;;;;6.13;4.25;;;5.80;92.60;;;;;;5075114;28;20094;-39
2024/02/13 08:41:14;;;;;;;9.02;4.45;;;5.80;92.50;;;;;;5074854;28;20051;-37
2024/02/13 08:43:40;;;;;;;7.47;4.28;;;5.90;92.50;;;;;;5074948;28;20044;-36
2024/02/13 08:46:06;;;;;;;8.07;4.15;;;5.90;92.40;;;;;;5074897;28;20537;-37
2024/02/13 08:48:31;;;;;;;8.00;4.38;;;6.00;92.40;;;;;;5074779;28;20100;-37
2024/02/13 08:50:57;;;;;;;5.78;3.85;;;6.10;92.40;;;;;;5075059;28;20024;-37
2024/02/13 08:53:25;;;;;;;10.68;4.57;;;6.10;92.30;;;;;;5074978;28;20495;-36
2024/02/13 08:55:51;;;;;;;11.18;4.60;;;6.20;92.20;;;;;;5074735;28;20031;-38
2024/02/13 08:58:17;;;;;;;8.95;4.10;;;6.20;92.20;;;;;;5074880;28;20508;-37
2024/02/13 09:00:43;;;;;;;9.43;4.20;;;6.20;92.20;;;;;;5074462;28;20048;-37
2024/02/13 09:03:09;;;;;;;6.70;3.90;;;6.20;92.20;;;;;;5074893;28;20101;-36
2024/02/13 09:05:34;;;;;;;9.75;4.18;;;6.30;92.20;;;;;;5074480;28;20035;-38
2024/02/13 09:08:00;;;;;;;7.80;4.05;;;6.30;92.20;;;;;;5074491;28;20025;-37
2024/02/13 09:10:27;;;;;;;9.20;4.13;;;6.20;92.10;;;;;;5074481;28;20028;-37
2024/02/13 09:12:52;;;;;;;7.10;3.80;;;6.20;92.10;;;;;;5073202;28;20456;-39
2024/02/13 09:15:18;;;;;;;8.73;3.95;;;6.20;92.20;;;;;;5074541;28;20054;-36
2024/02/13 09:17:45;;;;;;;9.50;4.18;;;6.20;92.20;;;;;;5074188;28;20376;-37
2024/02/13 09:20:14;;;;;;;6.35;3.13;;;6.20;92.20;;;;;;5072815;28;20477;-37
2024/02/13 09:22:44;;;;;;;8.38;3.28;;;6.30;92.20;;;;;;5074526;28;20591;-38
2024/02/13 09:25:13;;;;;;;5.82;3.17;;;6.30;92.20;;;;;;5074299;28;20012;-38
2024/02/13 09:27:43;;;;;;;6.00;3.42;;;6.40;92.20;;;;;;5074161;28;20499;-37
2024/02/13 09:30:12;;;;;;;6.80;3.47;;;6.40;92.10;;;;;;5074553;28;20027;-38
2024/02/13 09:32:38;;;;;;;7.72;3.30;;;6.60;92.10;;;;;;5072975;28;20116;-36
2024/02/13 09:35:07;;;;;;;8.63;3.78;;;6.60;92.10;;;;;;5074344;28;20457;-37
2024/02/13 09:37:42;;;;;;;9.38;3.83;;;6.70;92.10;;;;;;5074428;28;20508;-37
2024/02/13 09:40:16;;;;;;;6.82;3.35;;;6.80;92.00;;;;;;5073838;28;20025;-37
2024/02/13 09:42:42;;;;;;;7.65;3.50;;;6.90;91.90;;;;;;5073793;28;20059;-36
2024/02/13 09:45:09;;;;;;;6.07;3.50;;;7.00;91.90;;;;;;5073772;28;20020;-36
2024/02/13 09:47:40;;;;;;;5.75;3.40;;;7.00;91.80;;;;;;5072496;28;20070;-37
2024/02/13 09:50:11;;;;;;;6.57;2.65;;;7.00;91.70;;;;;;5073884;28;20055;-37
2024/02/13 09:52:51;;;;;;;7.50;3.45;;;7.10;91.70;;;;;;5073895;28;20035;-37
2024/02/13 09:55:18;;;;;;;8.00;2.83;;;7.10;91.70;;;;;;5072935;28;20024;-38
2024/02/13 09:57:45;;;;;;;6.75;3.35;;;7.10;91.70;;;;;;5073792;28;20059;-37
2024/02/13 10:00:16;;;;;;;6.50;3.30;;;7.10;91.70;;;;;;5073406;28;20103;-38
2024/02/13 10:02:42;;;;;;;6.72;3.08;;;7.20;91.70;;;;;;5073783;28;20381;-37
2024/02/13 10:05:10;;;;;;;6.35;3.30;;;7.20;91.60;;;;;;5072110;28;20036;-38
2024/02/13 10:07:39;;;;;;;8.35;3.92;;;7.30;91.70;;;;;;5073744;28;20043;-39
2024/02/13 10:10:10;;;;;;;8.73;3.20;;;7.30;91.60;;;;;;5073835;28;20048;-39
2024/02/13 10:12:39;;;;;;;8.38;3.00;;;7.40;91.50;;;;;;5073370;28;20021;-40
2024/02/13 10:15:08;;;;;;;8.55;3.30;;;7.40;91.50;;;;;;5073599;28;20099;-38
2024/02/13 10:17:34;;;;;;;5.90;2.80;;;7.40;91.50;;;;;;5073215;28;20029;-37
2024/02/13 10:20:01;;;;;;;8.73;3.40;;;7.50;91.40;;;;;;5073330;28;20456;-38
2024/02/13 10:22:27;;;;;;;9.63;3.15;;;7.50;91.40;;;;;;5073068;28;20020;-39
2024/02/13 10:24:56;;;;;;;5.72;2.92;;;7.60;91.40;;;;;;5073252;28;20431;-37
2024/02/13 10:27:21;;;;;;;6.57;3.00;;;7.70;91.40;;;;;;5073333;28;20414;-37
2024/02/13 10:29:47;;;;;;;8.52;2.97;;;7.70;91.30;;;;;;5071410;28;20086;-37
2024/02/13 10:32:13;;;;;;;6.95;3.30;;;7.80;91.20;;;;;;5072931;28;20032;-37
2024/02/13 10:34:38;;;;;;;7.05;3.10;;;7.90;91.10;;;;;;5071634;28;20068;-37
2024/02/13 10:37:08;;;;;;;8.93;3.25;;;7.90;91.00;;;;;;5072694;28;20102;-38
2024/02/13 10:39:36;;;;;;;6.20;3.35;;;8.00;91.00;;;;;;5073331;28;20016;-37
2024/02/13 10:42:09;;;;;;;7.05;3.00;;;8.00;90.80;;;;;;5072659;28;20048;-35
2024/02/13 10:44:39;;;;;;;;;;;8.10;90.90;;;;;;5072786;28;20024;-38
2024/02/13 10:47:10;;;;;;;6.15;2.88;;;8.20;90.80;;;;;;5072796;28;19918;-38
2024/02/13 10:49:49;;;;;;;7.88;3.00;;;8.20;90.70;;;;;;5072452;28;20031;-38
2024/02/13 10:52:16;;;;;;;10.27;3.40;;;8.20;90.60;;;;;;5072867;28;20038;-37
2024/02/13 10:54:46;;;;;;;8.02;2.92;;;8.30;90.60;;;;;;5072349;28;20028;-37
2024/02/13 10:57:18;;;;;;;7.35;3.20;;;8.30;90.60;;;;;;5072422;28;20112;-37
2024/02/13 10:59:45;;;;;;;6.17;2.87;;;8.50;90.50;;;;;;5072446;28;20020;-37
2024/02/13 11:02:17;;;;;;;7.95;2.70;;;8.50;90.40;;;;;;5072301;28;20067;-38
2024/02/13 11:04:43;;;;;;;11.73;3.67;;;8.70;90.30;;;;;;5072167;28;20373;-38
2024/02/13 11:07:18;;;;;;;8.65;3.08;;;8.70;89.90;;;;;;5072193;28;20163;-37
2024/02/13 11:09:44;;;;;;;6.63;3.30;;;8.80;89.90;;;;;;5072130;28;20028;-37
2024/02/13 11:12:10;;;;;;;6.93;3.20;;;8.80;89.80;;;;;;5072206;28;20025;-36
2024/02/13 11:14:35;;;;;;;5.75;3.38;;;8.90;89.70;;;;;;5072335;28;20032;-37
2024/02/13 11:17:08;;;;;;;4.15;2.58;;;8.90;89.70;;;;;;5071803;28;20485;-37
2024/02/13 11:19:41;;;;;;;10.18;2.90;;;8.90;89.60;;;;;;5072491;28;20031;-37
2024/02/13 11:22:09;;;;;;;;;;;8.90;89.70;;;;;;5072754;28;20495;-38
2024/02/13 11:24:53;;;;;;;5.82;3.10;;;9.00;89.30;;;;;;5072118;28;20353;-37
2024/02/13 11:27:28;;;;;;;6.70;2.75;;;9.00;89.00;;;;;;5072264;28;20024;-36
2024/02/13 11:29:57;;;;;;;6.65;2.58;;;9.10;89.10;;;;;;5071559;28;20335;-36
2024/02/13 11:32:28;;;;;;;7.55;3.00;;;9.20;89.00;;;;;;5054255;28;20432;-44
2024/02/13 11:34:58;;;;;;;7.60;2.83;;;9.30;88.80;;;;;;5071580;28;20098;-36
2024/02/13 11:37:28;;;;;;;6.57;2.80;;;9.40;88.20;;;;;;5071554;28;20028;-36
2024/02/13 11:39:57;;;;;;;10.50;2.65;;;9.40;87.70;;;;;;5071737;28;20021;-36
2024/02/13 11:42:22;;;;;;;5.68;2.35;;;9.50;87.70;;;;;;5071389;28;20287;-38
2024/02/13 11:44:50;;;;;;;4.60;2.42;;;9.50;87.40;;;;;;5071389;28;20021;-34
2024/02/13 11:47:19;;;;;;;5.88;2.70;;;9.60;87.20;;;;;;5071423;28;20033;-38
2024/02/13 11:49:51;;;;;;;5.22;2.47;;;9.60;86.90;;;;;;5070123;28;20021;-34
2024/02/13 11:52:21;;;;;;;6.50;3.10;;;9.60;86.80;;;;;;5071926;28;20555;-38
2024/02/13 11:54:48;;;;;;;7.15;2.97;;;9.70;86.40;;;;;;5071780;28;20029;-37
2024/02/13 11:57:14;;;;;;;4.32;2.22;;;9.70;85.40;;;;;;5070778;28;20031;-37
2024/02/13 11:59:40;;;;;;;6.03;2.53;;;9.70;85.70;;;;;;5071655;28;20529;-36
2024/02/13 12:02:13;;;;;;;5.25;2.33;;;9.80;85.90;;;;;;5071658;28;20086;-37
2024/02/13 12:04:43;;;;;;;4.57;2.30;;;9.80;85.90;;;;;;5071511;28;20047;-34
2024/02/13 12:07:10;;;;;;;5.47;2.40;;;9.80;85.70;;;;;;5071290;28;20080;-37
2024/02/13 12:09:38;;;;;;;7.82;2.75;;;9.90;85.70;;;;;;5071111;28;20028;-36
2024/02/13 12:12:09;;;;;;;7.72;2.50;;;10.00;85.30;;;;;;5071509;28;20024;-37
2024/02/13 12:14:39;;;;;;;5.10;2.38;;;10.00;85.10;;;;;;5071098;28;20061;-45
2024/02/13 12:17:07;;;;;;;6.82;2.53;;;10.00;85.10;;;;;;5071279;28;20384;-36
2024/02/13 12:19:43;;;;;;;6.97;2.08;;;10.00;85.00;;;;;;5071025;28;20048;-35
2024/02/13 12:22:09;;;;;;;6.82;2.60;;;10.00;84.60;;;;;;5071531;28;20024;-39
2024/02/13 12:24:39;;;;;;;7.78;2.67;;;10.00;84.20;;;;;;5071276;28;20384;-38
2024/02/13 12:27:06;;;;;;;4.93;2.20;;;10.00;83.60;;;;;;5071453;28;20380;-35
2024/02/13 12:29:38;;;;;;;6.13;2.40;;;10.00;83.60;;;;;;5071384;28;20021;-37
2024/02/13 12:32:06;;;;;;;4.35;2.00;;;10.10;83.40;;;;;;5071539;28;20436;-36
2024/02/13 12:34:33;;;;;;;5.72;2.10;;;10.10;83.60;;;;;;5070783;28;20055;-36
2024/02/13 12:37:00;;;;;;;4.82;1.90;;;10.20;83.40;;;;;;5071366;28;20028;-36
2024/02/13 12:39:26;;;;;;;4.25;2.03;;;10.30;83.00;;;;;;5070827;28;20052;-42
2024/02/13 12:41:53;;;;;;;7.65;2.30;;;10.30;82.50;;;;;;5071226;28;20023;-39
2024/02/13 12:44:20;;;;;;;4.60;2.20;;;10.30;82.70;;;;;;5071245;28;20473;-38
2024/02/13 12:46:48;;;;;;;3.25;2.00;;;10.30;82.60;;;;;;5071079;28;20090;-37
2024/02/13 12:49:16;;;;;;;5.32;1.95;;;10.40;82.50;;;;;;5071256;28;20024;-35
2024/02/13 12:51:44;;;;;;;5.28;2.22;;;10.40;81.90;;;;;;5071214;28;20024;-37
2024/02/13 12:54:10;;;;;;;5.65;2.35;;;10.50;82.00;;;;;;5071290;28;20078;-37